RJBB/KIX METAR and TAF weather

Enter ICAO airport designator
Station Type Date Time Source
RJBB METAR 2022/05/23 13:30 UTC NOAA

RJBB 231330Z 06009KT 9999 FEW050 BKN/// 20/15 Q1014 NOSIG


Station Type Date Time Source
RJBB Decoded METAR 2022/05/23 13:30 UTC NOAA

Kansai International Airport, Japan (RJBB) 34-25N 135-15E 8M
May 23, 2022 - 09:30 AM EDT / 2022.05.23 1330 UTC
Wind: from the ENE (060 degrees) at 10 MPH (9 KT):0
Visibility: greater than 7 mile(s):0
Sky conditions: mostly cloudy
Temperature: 68 F (20 C)
Dew Point: 59 F (15 C)
Relative Humidity: 72%
Pressure (altimeter): 29.94 in. Hg (1014 hPa)
ob: RJBB 231330Z 06009KT 9999 FEW050 BKN/// 20/15 Q1014 NOSIG
cycle: 13

Station Type Date Time Source
RJBB TAF 2022/05/23 12:30 UTC NOAA

TAF RJBB 231106Z 2312/2418 06010KT 9999 FEW030
BECMG 2403/2406 23012KT
BECMG 2412/2415 35004KT

Example: see airport list